Pagina principale
METAR-TAF:

METAR-TAF

Aeroporti :

Aeroporto di Palma di Maiorca

Palma di Maiorca, Spagna

latitudine: 39-33N, longitudine: 002-44E, altezza: 4 m

Osservazione

Il bollettino è stato emesso 37 minuti fa, alle 02:30 UTC
Vento 3 kt da nord
Temperature 11°C
Umidità 87%
Pressione 1020 hPa
Visibilità 10 km o più
nessuna nube inferiore a 1500 m e nessun cumulonembo

METAR: LEPA 160230Z 01003KT CAVOK 11/09 Q1020 NOSIG

Ora: 05:07 (03:07 UTC)

Previsione

Il bollettino è stato emesso 4 ore e 7 minuti fa, alle 23:00 UTC
Previsione valida dal 16 alle 00 UTC al 16 alle 24 UTC
Vento 3 kt da direzioni variabili
Visibilità 10 km o più
Poco nuvoloso ad un'altezza di 2000 ft
Evoluzione graduale
dal 16 alle 08 UTC al 16 alle 10 UTC
Vento 8 kt da sud/sud-ovest
Evoluzione graduale
dal 16 alle 18 UTC al 16 alle 20 UTC
Vento 3 kt da nord/nord-est

TAF: LEPA 152300Z 1600/1624 VRB03KT 9999 FEW020 TX22/1612Z TN12/1606Z BECMG 1608/1610 21008KT BECMG 1618/1620 02003KT

Osservazioni e previsioni meteorologiche di più di 4000 aeroporti (messaggi METAR e TAF).

Le stazioni disponibili sono rappresentate dai dischi gialli e rossi sulla carta.

Puntare il mouse per vedere il nome della stazione.

Clicca sopra per visualizzare le osservazioni e previsioni meteorologiche.

Per cambiare la mappa : fare clic sui pulsanti verdi con una croce nera per ingrandire, il pulsante verde con un trattino per diminuire, o sulla freccia verde per le mappe adiacenti.


METAR-TAF: